sensor_id;sensor_type;location;lat;lon;timestamp;P1;durP1;ratioP1;P2;durP2;ratioP2
19448;SDS011;9863;49.404;8.246;2022-09-14T00:01:34;804.83;;;748.60;;
19448;SDS011;9863;49.404;8.246;2022-09-14T00:04:07;806.72;;;749.78;;
19448;SDS011;9863;49.404;8.246;2022-09-14T00:06:42;799.08;;;743.30;;
19448;SDS011;9863;49.404;8.246;2022-09-14T00:09:15;793.40;;;737.80;;
19448;SDS011;9863;49.404;8.246;2022-09-14T00:11:46;793.05;;;737.15;;
19448;SDS011;9863;49.404;8.246;2022-09-14T00:14:15;791.55;;;736.47;;
19448;SDS011;9863;49.404;8.246;2022-09-14T00:16:44;789.17;;;733.33;;
19448;SDS011;9863;49.404;8.246;2022-09-14T00:19:18;780.75;;;726.67;;
19448;SDS011;9863;49.404;8.246;2022-09-14T00:21:52;799.13;;;741.55;;
19448;SDS011;9863;49.404;8.246;2022-09-14T00:24:23;783.90;;;728.35;;
19448;SDS011;9863;49.404;8.246;2022-09-14T00:26:53;788.05;;;732.35;;
19448;SDS011;9863;49.404;8.246;2022-09-14T00:29:21;779.03;;;724.60;;
19448;SDS011;9863;49.404;8.246;2022-09-14T00:31:49;783.85;;;728.45;;
19448;SDS011;9863;49.404;8.246;2022-09-14T00:34:18;774.25;;;719.50;;
19448;SDS011;9863;49.404;8.246;2022-09-14T00:36:47;776.13;;;720.45;;
19448;SDS011;9863;49.404;8.246;2022-09-14T00:39:18;779.03;;;724.10;;
19448;SDS011;9863;49.404;8.246;2022-09-14T00:41:50;778.55;;;723.05;;
19448;SDS011;9863;49.404;8.246;2022-09-14T00:46:47;781.33;;;725.35;;
19448;SDS011;9863;49.404;8.246;2022-09-14T00:49:37;779.70;;;724.25;;
19448;SDS011;9863;49.404;8.246;2022-09-14T00:52:10;769.05;;;713.72;;
19448;SDS011;9863;49.404;8.246;2022-09-14T00:54:57;770.45;;;715.10;;
19448;SDS011;9863;49.404;8.246;2022-09-14T00:57:30;770.40;;;714.60;;
19448;SDS011;9863;49.404;8.246;2022-09-14T01:00:08;764.88;;;710.25;;
19448;SDS011;9863;49.404;8.246;2022-09-14T01:02:38;779.90;;;724.53;;
19448;SDS011;9863;49.404;8.246;2022-09-14T01:05:07;781.75;;;725.15;;
19448;SDS011;9863;49.404;8.246;2022-09-14T01:07:44;762.63;;;709.08;;
19448;SDS011;9863;49.404;8.246;2022-09-14T01:13:36;754.17;;;700.63;;
19448;SDS011;9863;49.404;8.246;2022-09-14T01:16:38;750.78;;;696.83;;
19448;SDS011;9863;49.404;8.246;2022-09-14T01:19:22;758.40;;;703.90;;
19448;SDS011;9863;49.404;8.246;2022-09-14T01:24:57;756.30;;;701.72;;
19448;SDS011;9863;49.404;8.246;2022-09-14T01:31:32;741.25;;;687.38;;
19448;SDS011;9863;49.404;8.246;2022-09-14T01:34:33;739.55;;;686.08;;
19448;SDS011;9863;49.404;8.246;2022-09-14T01:37:13;741.65;;;688.03;;
19448;SDS011;9863;49.404;8.246;2022-09-14T01:39:49;752.38;;;697.42;;
19448;SDS011;9863;49.404;8.246;2022-09-14T01:42:27;758.03;;;702.63;;
19448;SDS011;9863;49.404;8.246;2022-09-14T01:44:59;762.33;;;706.60;;
19448;SDS011;9863;49.404;8.246;2022-09-14T01:47:37;752.63;;;697.80;;
19448;SDS011;9863;49.404;8.246;2022-09-14T01:55:52;749.65;;;695.42;;
19448;SDS011;9863;49.404;8.246;2022-09-14T02:00:56;753.88;;;698.03;;
19448;SDS011;9863;49.404;8.246;2022-09-14T02:03:29;750.92;;;696.55;;
19448;SDS011;9863;49.404;8.246;2022-09-14T02:06:12;751.45;;;696.90;;
19448;SDS011;9863;49.404;8.246;2022-09-14T02:08:55;755.00;;;699.40;;
19448;SDS011;9863;49.404;8.246;2022-09-14T02:11:23;744.35;;;690.58;;
19448;SDS011;9863;49.404;8.246;2022-09-14T02:13:50;753.40;;;698.88;;
19448;SDS011;9863;49.404;8.246;2022-09-14T02:16:18;752.90;;;697.78;;
19448;SDS011;9863;49.404;8.246;2022-09-14T02:18:48;752.35;;;697.17;;
19448;SDS011;9863;49.404;8.246;2022-09-14T02:21:17;746.13;;;692.70;;
19448;SDS011;9863;49.404;8.246;2022-09-14T02:23:51;759.92;;;704.17;;
19448;SDS011;9863;49.404;8.246;2022-09-14T02:26:20;752.35;;;697.38;;
19448;SDS011;9863;49.404;8.246;2022-09-14T02:28:49;756.88;;;702.10;;
19448;SDS011;9863;49.404;8.246;2022-09-14T02:31:25;751.25;;;696.72;;
19448;SDS011;9863;49.404;8.246;2022-09-14T02:34:37;744.97;;;690.75;;
19448;SDS011;9863;49.404;8.246;2022-09-14T02:40:24;741.95;;;687.80;;
19448;SDS011;9863;49.404;8.246;2022-09-14T02:51:33;748.60;;;694.47;;
19448;SDS011;9863;49.404;8.246;2022-09-14T02:56:47;743.70;;;689.50;;
19448;SDS011;9863;49.404;8.246;2022-09-14T02:59:15;751.58;;;696.85;;
19448;SDS011;9863;49.404;8.246;2022-09-14T03:01:44;753.83;;;698.80;;
19448;SDS011;9863;49.404;8.246;2022-09-14T03:04:12;753.78;;;699.17;;
19448;SDS011;9863;49.404;8.246;2022-09-14T03:06:40;747.08;;;692.75;;
19448;SDS011;9863;49.404;8.246;2022-09-14T03:09:08;743.97;;;689.40;;
19448;SDS011;9863;49.404;8.246;2022-09-14T03:11:36;756.42;;;701.72;;
19448;SDS011;9863;49.404;8.246;2022-09-14T03:14:03;753.97;;;699.25;;
19448;SDS011;9863;49.404;8.246;2022-09-14T03:16:31;746.03;;;691.85;;
19448;SDS011;9863;49.404;8.246;2022-09-14T03:18:59;747.40;;;692.78;;
19448;SDS011;9863;49.404;8.246;2022-09-14T03:21:27;747.53;;;693.67;;
19448;SDS011;9863;49.404;8.246;2022-09-14T03:23:55;752.28;;;697.42;;
19448;SDS011;9863;49.404;8.246;2022-09-14T03:26:24;745.75;;;691.65;;
19448;SDS011;9863;49.404;8.246;2022-09-14T03:28:56;733.45;;;681.15;;
19448;SDS011;9863;49.404;8.246;2022-09-14T03:31:25;741.28;;;687.58;;
19448;SDS011;9863;49.404;8.246;2022-09-14T03:33:54;751.28;;;695.65;;
19448;SDS011;9863;49.404;8.246;2022-09-14T03:36:25;754.08;;;698.67;;
19448;SDS011;9863;49.404;8.246;2022-09-14T03:38:56;745.03;;;690.63;;
19448;SDS011;9863;49.404;8.246;2022-09-14T03:41:26;751.97;;;695.95;;
19448;SDS011;9863;49.404;8.246;2022-09-14T03:43:54;739.13;;;685.58;;
19448;SDS011;9863;49.404;8.246;2022-09-14T03:46:22;738.25;;;684.53;;
19448;SDS011;9863;49.404;8.246;2022-09-14T03:48:52;738.55;;;685.55;;
19448;SDS011;9863;49.404;8.246;2022-09-14T03:51:21;737.90;;;684.22;;
19448;SDS011;9863;49.404;8.246;2022-09-14T03:53:50;745.20;;;690.00;;
19448;SDS011;9863;49.404;8.246;2022-09-14T03:56:19;748.72;;;694.15;;
19448;SDS011;9863;49.404;8.246;2022-09-14T03:58:48;748.38;;;693.17;;
19448;SDS011;9863;49.404;8.246;2022-09-14T04:01:17;749.05;;;693.72;;
19448;SDS011;9863;49.404;8.246;2022-09-14T04:03:48;742.22;;;687.10;;
19448;SDS011;9863;49.404;8.246;2022-09-14T04:06:17;752.97;;;697.60;;
19448;SDS011;9863;49.404;8.246;2022-09-14T04:08:46;745.20;;;691.08;;
19448;SDS011;9863;49.404;8.246;2022-09-14T04:13:45;740.63;;;687.67;;
19448;SDS011;9863;49.404;8.246;2022-09-14T04:16:14;748.03;;;691.80;;
19448;SDS011;9863;49.404;8.246;2022-09-14T04:18:43;741.60;;;687.75;;
19448;SDS011;9863;49.404;8.246;2022-09-14T04:21:18;745.75;;;691.70;;
19448;SDS011;9863;49.404;8.246;2022-09-14T04:23:55;746.17;;;691.03;;
19448;SDS011;9863;49.404;8.246;2022-09-14T04:26:42;735.88;;;681.53;;
19448;SDS011;9863;49.404;8.246;2022-09-14T04:29:11;742.65;;;687.65;;
19448;SDS011;9863;49.404;8.246;2022-09-14T04:31:40;748.05;;;693.22;;
19448;SDS011;9863;49.404;8.246;2022-09-14T04:34:09;736.28;;;683.10;;
19448;SDS011;9863;49.404;8.246;2022-09-14T04:36:40;750.97;;;695.80;;
19448;SDS011;9863;49.404;8.246;2022-09-14T04:39:09;752.30;;;697.70;;
19448;SDS011;9863;49.404;8.246;2022-09-14T04:41:39;745.65;;;691.88;;
19448;SDS011;9863;49.404;8.246;2022-09-14T04:44:07;757.92;;;701.83;;
19448;SDS011;9863;49.404;8.246;2022-09-14T04:46:36;746.67;;;691.83;;
19448;SDS011;9863;49.404;8.246;2022-09-14T04:49:13;742.78;;;689.17;;
19448;SDS011;9863;49.404;8.246;2022-09-14T04:51:44;752.60;;;697.28;;
19448;SDS011;9863;49.404;8.246;2022-09-14T04:54:13;752.30;;;697.30;;
19448;SDS011;9863;49.404;8.246;2022-09-14T04:56:43;743.92;;;689.13;;
19448;SDS011;9863;49.404;8.246;2022-09-14T04:59:12;728.80;;;676.53;;
19448;SDS011;9863;49.404;8.246;2022-09-14T05:01:42;749.92;;;694.13;;
19448;SDS011;9863;49.404;8.246;2022-09-14T05:04:13;747.05;;;692.25;;
19448;SDS011;9863;49.404;8.246;2022-09-14T05:06:42;740.08;;;686.33;;
19448;SDS011;9863;49.404;8.246;2022-09-14T05:09:12;731.15;;;677.72;;
19448;SDS011;9863;49.404;8.246;2022-09-14T05:11:43;741.08;;;687.22;;
19448;SDS011;9863;49.404;8.246;2022-09-14T05:14:12;731.22;;;677.08;;
19448;SDS011;9863;49.404;8.246;2022-09-14T05:16:41;739.58;;;684.80;;
19448;SDS011;9863;49.404;8.246;2022-09-14T05:19:14;738.55;;;685.42;;
19448;SDS011;9863;49.404;8.246;2022-09-14T05:21:44;729.90;;;675.75;;
19448;SDS011;9863;49.404;8.246;2022-09-14T05:24:13;739.78;;;684.92;;
19448;SDS011;9863;49.404;8.246;2022-09-14T05:26:45;736.85;;;682.28;;
19448;SDS011;9863;49.404;8.246;2022-09-14T05:29:14;730.13;;;676.38;;
19448;SDS011;9863;49.404;8.246;2022-09-14T05:31:44;752.38;;;695.55;;
19448;SDS011;9863;49.404;8.246;2022-09-14T05:34:12;732.40;;;678.35;;
19448;SDS011;9863;49.404;8.246;2022-09-14T05:36:41;739.42;;;684.97;;
19448;SDS011;9863;49.404;8.246;2022-09-14T05:39:09;731.78;;;678.05;;
19448;SDS011;9863;49.404;8.246;2022-09-14T05:41:37;739.08;;;684.55;;
19448;SDS011;9863;49.404;8.246;2022-09-14T05:44:05;737.67;;;683.35;;
19448;SDS011;9863;49.404;8.246;2022-09-14T05:46:33;735.45;;;681.55;;
19448;SDS011;9863;49.404;8.246;2022-09-14T05:49:01;737.53;;;683.00;;
19448;SDS011;9863;49.404;8.246;2022-09-14T05:51:29;744.05;;;688.20;;
19448;SDS011;9863;49.404;8.246;2022-09-14T05:53:57;728.28;;;675.03;;
19448;SDS011;9863;49.404;8.246;2022-09-14T05:56:26;734.53;;;681.15;;
19448;SDS011;9863;49.404;8.246;2022-09-14T05:58:57;735.35;;;681.70;;
19448;SDS011;9863;49.404;8.246;2022-09-14T06:01:27;738.17;;;684.05;;
19448;SDS011;9863;49.404;8.246;2022-09-14T06:03:59;740.30;;;686.00;;
19448;SDS011;9863;49.404;8.246;2022-09-14T06:06:29;738.38;;;684.50;;
19448;SDS011;9863;49.404;8.246;2022-09-14T06:08:58;743.90;;;689.78;;
19448;SDS011;9863;49.404;8.246;2022-09-14T06:11:27;737.80;;;684.40;;
19448;SDS011;9863;49.404;8.246;2022-09-14T06:13:59;745.60;;;691.35;;
19448;SDS011;9863;49.404;8.246;2022-09-14T06:16:27;740.95;;;687.15;;
19448;SDS011;9863;49.404;8.246;2022-09-14T06:18:56;749.85;;;694.60;;
19448;SDS011;9863;49.404;8.246;2022-09-14T06:21:29;737.47;;;683.58;;
19448;SDS011;9863;49.404;8.246;2022-09-14T06:23:59;749.20;;;694.13;;
19448;SDS011;9863;49.404;8.246;2022-09-14T06:26:28;746.70;;;692.33;;
19448;SDS011;9863;49.404;8.246;2022-09-14T06:28:56;749.15;;;694.25;;
19448;SDS011;9863;49.404;8.246;2022-09-14T06:31:25;768.20;;;711.58;;
19448;SDS011;9863;49.404;8.246;2022-09-14T06:33:53;756.13;;;701.13;;
19448;SDS011;9863;49.404;8.246;2022-09-14T06:36:22;762.05;;;706.80;;
19448;SDS011;9863;49.404;8.246;2022-09-14T06:38:53;760.83;;;704.80;;
19448;SDS011;9863;49.404;8.246;2022-09-14T06:41:23;752.40;;;697.33;;
19448;SDS011;9863;49.404;8.246;2022-09-14T06:43:56;756.97;;;701.97;;
19448;SDS011;9863;49.404;8.246;2022-09-14T06:46:30;755.50;;;701.25;;
19448;SDS011;9863;49.404;8.246;2022-09-14T06:49:01;752.15;;;698.85;;
19448;SDS011;9863;49.404;8.246;2022-09-14T06:54:04;750.63;;;697.42;;
19448;SDS011;9863;49.404;8.246;2022-09-14T06:56:39;758.20;;;703.92;;
19448;SDS011;9863;49.404;8.246;2022-09-14T06:59:10;765.33;;;710.00;;
19448;SDS011;9863;49.404;8.246;2022-09-14T07:01:41;769.92;;;714.47;;
19448;SDS011;9863;49.404;8.246;2022-09-14T07:04:15;758.55;;;703.97;;
19448;SDS011;9863;49.404;8.246;2022-09-14T07:06:44;768.65;;;712.75;;
19448;SDS011;9863;49.404;8.246;2022-09-14T07:09:15;754.85;;;701.88;;
19448;SDS011;9863;49.404;8.246;2022-09-14T07:11:46;761.75;;;706.75;;
19448;SDS011;9863;49.404;8.246;2022-09-14T07:14:15;783.40;;;726.13;;
19448;SDS011;9863;49.404;8.246;2022-09-14T07:16:43;768.83;;;714.63;;
19448;SDS011;9863;49.404;8.246;2022-09-14T07:19:11;770.40;;;715.17;;
19448;SDS011;9863;49.404;8.246;2022-09-14T07:21:41;772.78;;;717.67;;
19448;SDS011;9863;49.404;8.246;2022-09-14T07:24:10;770.15;;;715.40;;
19448;SDS011;9863;49.404;8.246;2022-09-14T07:26:41;765.67;;;711.97;;
19448;SDS011;9863;49.404;8.246;2022-09-14T07:29:13;773.05;;;718.90;;
19448;SDS011;9863;49.404;8.246;2022-09-14T07:31:45;777.70;;;722.42;;
19448;SDS011;9863;49.404;8.246;2022-09-14T07:34:18;778.60;;;723.60;;
19448;SDS011;9863;49.404;8.246;2022-09-14T07:36:46;782.13;;;726.42;;
19448;SDS011;9863;49.404;8.246;2022-09-14T07:39:15;777.72;;;723.67;;
19448;SDS011;9863;49.404;8.246;2022-09-14T07:41:44;786.70;;;730.85;;
19448;SDS011;9863;49.404;8.246;2022-09-14T07:44:13;789.90;;;734.47;;
19448;SDS011;9863;49.404;8.246;2022-09-14T07:46:43;795.03;;;739.05;;
19448;SDS011;9863;49.404;8.246;2022-09-14T07:49:12;812.78;;;755.65;;
19448;SDS011;9863;49.404;8.246;2022-09-14T07:51:42;807.13;;;750.42;;
19448;SDS011;9863;49.404;8.246;2022-09-14T07:54:11;810.58;;;753.47;;
19448;SDS011;9863;49.404;8.246;2022-09-14T07:56:42;807.55;;;751.25;;
19448;SDS011;9863;49.404;8.246;2022-09-14T07:59:12;818.40;;;760.45;;
19448;SDS011;9863;49.404;8.246;2022-09-14T08:02:01;812.50;;;755.58;;
19448;SDS011;9863;49.404;8.246;2022-09-14T08:04:35;813.60;;;757.22;;
19448;SDS011;9863;49.404;8.246;2022-09-14T08:07:05;821.80;;;764.25;;
19448;SDS011;9863;49.404;8.246;2022-09-14T08:09:33;829.65;;;771.60;;
19448;SDS011;9863;49.404;8.246;2022-09-14T08:12:01;823.45;;;766.58;;
19448;SDS011;9863;49.404;8.246;2022-09-14T08:14:31;824.53;;;767.55;;
19448;SDS011;9863;49.404;8.246;2022-09-14T08:16:59;823.42;;;766.88;;
19448;SDS011;9863;49.404;8.246;2022-09-14T08:19:27;831.20;;;773.20;;
19448;SDS011;9863;49.404;8.246;2022-09-14T08:21:56;838.03;;;780.65;;
19448;SDS011;9863;49.404;8.246;2022-09-14T08:24:24;832.60;;;775.58;;
19448;SDS011;9863;49.404;8.246;2022-09-14T08:26:52;834.03;;;776.72;;
19448;SDS011;9863;49.404;8.246;2022-09-14T08:29:20;827.75;;;771.20;;
19448;SDS011;9863;49.404;8.246;2022-09-14T08:31:48;834.75;;;777.83;;
19448;SDS011;9863;49.404;8.246;2022-09-14T08:34:18;844.17;;;785.63;;
19448;SDS011;9863;49.404;8.246;2022-09-14T08:36:47;842.70;;;785.30;;
19448;SDS011;9863;49.404;8.246;2022-09-14T08:39:15;849.97;;;791.47;;
19448;SDS011;9863;49.404;8.246;2022-09-14T08:41:57;853.97;;;795.53;;
19448;SDS011;9863;49.404;8.246;2022-09-14T08:47:10;850.63;;;792.90;;
19448;SDS011;9863;49.404;8.246;2022-09-14T08:52:26;854.75;;;797.13;;
19448;SDS011;9863;49.404;8.246;2022-09-14T08:54:58;858.45;;;799.92;;
19448;SDS011;9863;49.404;8.246;2022-09-14T09:00:17;859.13;;;801.50;;
19448;SDS011;9863;49.404;8.246;2022-09-14T09:05:59;871.20;;;812.63;;
19448;SDS011;9863;49.404;8.246;2022-09-14T09:11:34;874.38;;;816.42;;
19448;SDS011;9863;49.404;8.246;2022-09-14T09:14:50;880.25;;;821.58;;
19448;SDS011;9863;49.404;8.246;2022-09-14T09:17:03;880.25;;;821.65;;
19448;SDS011;9863;49.404;8.246;2022-09-14T09:19:45;879.65;;;820.35;;
19448;SDS011;9863;49.404;8.246;2022-09-14T09:22:22;888.92;;;829.65;;
19448;SDS011;9863;49.404;8.246;2022-09-14T09:24:55;897.30;;;837.42;;
19448;SDS011;9863;49.404;8.246;2022-09-14T09:27:24;892.97;;;834.00;;
19448;SDS011;9863;49.404;8.246;2022-09-14T09:29:53;900.67;;;840.67;;
19448;SDS011;9863;49.404;8.246;2022-09-14T09:32:25;906.58;;;845.47;;
19448;SDS011;9863;49.404;8.246;2022-09-14T09:35:13;898.58;;;839.90;;
19448;SDS011;9863;49.404;8.246;2022-09-14T09:37:52;912.67;;;852.50;;
19448;SDS011;9863;49.404;8.246;2022-09-14T09:40:26;922.03;;;858.95;;
19448;SDS011;9863;49.404;8.246;2022-09-14T09:43:06;907.10;;;847.33;;
19448;SDS011;9863;49.404;8.246;2022-09-14T09:45:58;909.08;;;848.83;;
19448;SDS011;9863;49.404;8.246;2022-09-14T09:48:37;915.67;;;854.75;;
19448;SDS011;9863;49.404;8.246;2022-09-14T09:51:12;908.63;;;849.30;;
19448;SDS011;9863;49.404;8.246;2022-09-14T09:53:54;924.42;;;862.65;;
19448;SDS011;9863;49.404;8.246;2022-09-14T09:56:24;922.72;;;861.60;;
19448;SDS011;9863;49.404;8.246;2022-09-14T09:58:55;928.85;;;868.45;;
19448;SDS011;9863;49.404;8.246;2022-09-14T10:01:26;938.30;;;876.33;;
19448;SDS011;9863;49.404;8.246;2022-09-14T10:03:59;941.97;;;880.78;;
19448;SDS011;9863;49.404;8.246;2022-09-14T10:06:29;955.83;;;892.80;;
19448;SDS011;9863;49.404;8.246;2022-09-14T10:08:58;958.55;;;896.05;;
19448;SDS011;9863;49.404;8.246;2022-09-14T10:14:03;965.50;;;903.60;;
19448;SDS011;9863;49.404;8.246;2022-09-14T10:16:44;968.33;;;906.65;;
19448;SDS011;9863;49.404;8.246;2022-09-14T10:19:14;982.03;;;917.78;;
19448;SDS011;9863;49.404;8.246;2022-09-14T10:25:33;979.33;;;916.30;;
19448;SDS011;9863;49.404;8.246;2022-09-14T10:30:36;995.70;;;931.17;;
19448;SDS011;9863;49.404;8.246;2022-09-14T10:33:15;997.25;;;933.47;;
19448;SDS011;9863;49.404;8.246;2022-09-14T10:38:38;1006.45;;;944.10;;
19448;SDS011;9863;49.404;8.246;2022-09-14T10:47:20;1029.03;;;964.70;;
19448;SDS011;9863;49.404;8.246;2022-09-14T10:54:07;1046.90;;;981.80;;
19448;SDS011;9863;49.404;8.246;2022-09-14T10:57:18;1048.50;;;983.58;;
19448;SDS011;9863;49.404;8.246;2022-09-14T11:00:17;1058.47;;;992.13;;
19448;SDS011;9863;49.404;8.246;2022-09-14T11:05:53;1068.18;;;998.10;;
19448;SDS011;9863;49.404;8.246;2022-09-14T11:08:52;1074.93;;;999.88;;
19448;SDS011;9863;49.404;8.246;2022-09-14T11:11:31;1088.88;;;999.90;;
19448;SDS011;9863;49.404;8.246;2022-09-14T11:20:12;1094.07;;;999.90;;
19448;SDS011;9863;49.404;8.246;2022-09-14T11:23:02;1096.20;;;999.90;;
19448;SDS011;9863;49.404;8.246;2022-09-14T11:26:12;1104.53;;;999.90;;
19448;SDS011;9863;49.404;8.246;2022-09-14T11:28:51;1094.40;;;999.90;;
19448;SDS011;9863;49.404;8.246;2022-09-14T11:31:48;1099.47;;;999.90;;
19448;SDS011;9863;49.404;8.246;2022-09-14T11:34:52;1101.53;;;999.90;;
19448;SDS011;9863;49.404;8.246;2022-09-14T11:37:33;1115.70;;;999.90;;
19448;SDS011;9863;49.404;8.246;2022-09-14T11:40:15;1095.30;;;999.90;;
19448;SDS011;9863;49.404;8.246;2022-09-14T11:43:08;1096.13;;;999.90;;
19448;SDS011;9863;49.404;8.246;2022-09-14T11:45:46;1109.40;;;999.90;;
19448;SDS011;9863;49.404;8.246;2022-09-14T11:48:42;1094.05;;;999.90;;
19448;SDS011;9863;49.404;8.246;2022-09-14T11:51:20;1094.57;;;999.90;;
19448;SDS011;9863;49.404;8.246;2022-09-14T11:53:58;1094.88;;;999.90;;
19448;SDS011;9863;49.404;8.246;2022-09-14T11:56:28;1090.78;;;999.90;;
19448;SDS011;9863;49.404;8.246;2022-09-14T11:58:59;1095.05;;;999.90;;
19448;SDS011;9863;49.404;8.246;2022-09-14T12:01:36;1091.53;;;999.90;;
19448;SDS011;9863;49.404;8.246;2022-09-14T12:09:46;1094.88;;;999.90;;
19448;SDS011;9863;49.404;8.246;2022-09-14T12:11:58;1089.40;;;999.90;;
19448;SDS011;9863;49.404;8.246;2022-09-14T12:14:27;1092.38;;;999.90;;
19448;SDS011;9863;49.404;8.246;2022-09-14T12:20:18;1089.90;;;999.90;;
19448;SDS011;9863;49.404;8.246;2022-09-14T12:23:28;1075.78;;;999.90;;
19448;SDS011;9863;49.404;8.246;2022-09-14T12:28:47;1080.78;;;999.90;;
19448;SDS011;9863;49.404;8.246;2022-09-14T12:34:17;1067.57;;;998.33;;
19448;SDS011;9863;49.404;8.246;2022-09-14T12:44:39;1059.38;;;993.95;;
19448;SDS011;9863;49.404;8.246;2022-09-14T12:49:56;1043.88;;;979.55;;
19448;SDS011;9863;49.404;8.246;2022-09-14T12:55:06;1032.30;;;968.72;;
19448;SDS011;9863;49.404;8.246;2022-09-14T12:58:08;1029.40;;;964.95;;
19448;SDS011;9863;49.404;8.246;2022-09-14T13:04:27;1022.63;;;957.53;;
19448;SDS011;9863;49.404;8.246;2022-09-14T13:07:00;1016.67;;;952.72;;
19448;SDS011;9863;49.404;8.246;2022-09-14T13:09:32;1019.08;;;954.42;;
19448;SDS011;9863;49.404;8.246;2022-09-14T13:12:07;1019.22;;;954.97;;
19448;SDS011;9863;49.404;8.246;2022-09-14T13:14:42;1017.50;;;953.35;;
19448;SDS011;9863;49.404;8.246;2022-09-14T13:17:19;1020.45;;;954.45;;
19448;SDS011;9863;49.404;8.246;2022-09-14T13:19:54;1021.55;;;956.50;;
19448;SDS011;9863;49.404;8.246;2022-09-14T13:22:24;1013.60;;;949.15;;
19448;SDS011;9863;49.404;8.246;2022-09-14T13:24:58;1007.13;;;943.28;;
19448;SDS011;9863;49.404;8.246;2022-09-14T13:27:33;1000.00;;;936.35;;
19448;SDS011;9863;49.404;8.246;2022-09-14T13:32:41;1002.97;;;938.58;;
19448;SDS011;9863;49.404;8.246;2022-09-14T13:35:16;996.50;;;932.10;;
19448;SDS011;9863;49.404;8.246;2022-09-14T13:37:58;991.85;;;927.45;;
19448;SDS011;9863;49.404;8.246;2022-09-14T13:40:35;986.78;;;923.13;;
19448;SDS011;9863;49.404;8.246;2022-09-14T13:43:03;975.30;;;913.03;;
19448;SDS011;9863;49.404;8.246;2022-09-14T13:45:31;982.08;;;919.25;;
19448;SDS011;9863;49.404;8.246;2022-09-14T13:47:59;986.33;;;922.65;;
19448;SDS011;9863;49.404;8.246;2022-09-14T13:50:27;970.72;;;909.63;;
19448;SDS011;9863;49.404;8.246;2022-09-14T13:52:56;974.83;;;912.35;;
19448;SDS011;9863;49.404;8.246;2022-09-14T14:01:01;966.60;;;902.85;;
19448;SDS011;9863;49.404;8.246;2022-09-14T14:03:40;961.17;;;898.78;;
19448;SDS011;9863;49.404;8.246;2022-09-14T14:06:20;955.10;;;893.22;;
19448;SDS011;9863;49.404;8.246;2022-09-14T14:09:04;948.92;;;887.10;;
19448;SDS011;9863;49.404;8.246;2022-09-14T14:11:40;944.40;;;883.40;;
19448;SDS011;9863;49.404;8.246;2022-09-14T14:14:22;944.05;;;883.13;;
19448;SDS011;9863;49.404;8.246;2022-09-14T14:19:56;946.88;;;884.88;;
19448;SDS011;9863;49.404;8.246;2022-09-14T14:25:34;930.83;;;870.72;;
19448;SDS011;9863;49.404;8.246;2022-09-14T14:28:14;933.75;;;872.97;;
19448;SDS011;9863;49.404;8.246;2022-09-14T14:30:46;933.25;;;871.45;;
19448;SDS011;9863;49.404;8.246;2022-09-14T14:33:14;944.45;;;883.03;;
19448;SDS011;9863;49.404;8.246;2022-09-14T14:35:50;939.47;;;878.33;;
19448;SDS011;9863;49.404;8.246;2022-09-14T14:38:21;935.28;;;874.15;;
19448;SDS011;9863;49.404;8.246;2022-09-14T14:40:51;934.40;;;872.85;;
19448;SDS011;9863;49.404;8.246;2022-09-14T14:43:22;924.75;;;864.38;;
19448;SDS011;9863;49.404;8.246;2022-09-14T14:45:56;922.08;;;861.53;;
19448;SDS011;9863;49.404;8.246;2022-09-14T14:48:27;918.83;;;859.25;;
19448;SDS011;9863;49.404;8.246;2022-09-14T14:50:55;913.88;;;854.58;;
19448;SDS011;9863;49.404;8.246;2022-09-14T14:53:24;918.28;;;858.03;;
19448;SDS011;9863;49.404;8.246;2022-09-14T14:55:52;927.10;;;865.15;;
19448;SDS011;9863;49.404;8.246;2022-09-14T14:58:20;915.35;;;855.35;;
19448;SDS011;9863;49.404;8.246;2022-09-14T15:00:49;908.20;;;849.25;;
19448;SDS011;9863;49.404;8.246;2022-09-14T15:03:17;912.80;;;852.13;;
19448;SDS011;9863;49.404;8.246;2022-09-14T15:05:46;906.60;;;845.50;;
19448;SDS011;9863;49.404;8.246;2022-09-14T15:08:16;912.08;;;850.88;;
19448;SDS011;9863;49.404;8.246;2022-09-14T15:10:46;902.60;;;842.67;;
19448;SDS011;9863;49.404;8.246;2022-09-14T15:13:15;893.45;;;835.35;;
19448;SDS011;9863;49.404;8.246;2022-09-14T15:15:43;901.40;;;841.15;;
19448;SDS011;9863;49.404;8.246;2022-09-14T15:18:11;900.40;;;841.22;;
19448;SDS011;9863;49.404;8.246;2022-09-14T15:20:39;896.42;;;837.03;;
19448;SDS011;9863;49.404;8.246;2022-09-14T15:23:07;887.28;;;829.42;;
19448;SDS011;9863;49.404;8.246;2022-09-14T15:25:38;885.50;;;827.88;;
19448;SDS011;9863;49.404;8.246;2022-09-14T15:28:06;891.85;;;832.20;;
19448;SDS011;9863;49.404;8.246;2022-09-14T15:30:34;888.60;;;829.05;;
19448;SDS011;9863;49.404;8.246;2022-09-14T15:33:02;887.15;;;828.40;;
19448;SDS011;9863;49.404;8.246;2022-09-14T15:35:30;880.78;;;823.53;;
19448;SDS011;9863;49.404;8.246;2022-09-14T15:37:59;896.55;;;836.95;;
19448;SDS011;9863;49.404;8.246;2022-09-14T15:40:40;893.90;;;834.63;;
19448;SDS011;9863;49.404;8.246;2022-09-14T15:43:16;887.50;;;828.20;;
19448;SDS011;9863;49.404;8.246;2022-09-14T15:46:04;894.75;;;833.47;;
19448;SDS011;9863;49.404;8.246;2022-09-14T15:48:48;888.83;;;828.95;;
19448;SDS011;9863;49.404;8.246;2022-09-14T15:51:16;880.13;;;822.53;;
19448;SDS011;9863;49.404;8.246;2022-09-14T15:53:45;886.17;;;827.72;;
19448;SDS011;9863;49.404;8.246;2022-09-14T15:56:14;890.28;;;830.53;;
19448;SDS011;9863;49.404;8.246;2022-09-14T15:58:42;886.47;;;828.63;;
19448;SDS011;9863;49.404;8.246;2022-09-14T16:01:15;884.75;;;825.30;;
19448;SDS011;9863;49.404;8.246;2022-09-14T16:03:44;896.72;;;836.97;;
19448;SDS011;9863;49.404;8.246;2022-09-14T16:06:12;886.85;;;828.30;;
19448;SDS011;9863;49.404;8.246;2022-09-14T16:08:41;882.95;;;825.17;;
19448;SDS011;9863;49.404;8.246;2022-09-14T16:11:08;886.00;;;827.92;;
19448;SDS011;9863;49.404;8.246;2022-09-14T16:13:37;890.10;;;831.20;;
19448;SDS011;9863;49.404;8.246;2022-09-14T16:16:06;886.30;;;828.15;;
19448;SDS011;9863;49.404;8.246;2022-09-14T16:18:40;894.90;;;835.72;;
19448;SDS011;9863;49.404;8.246;2022-09-14T16:21:42;894.97;;;835.88;;
19448;SDS011;9863;49.404;8.246;2022-09-14T16:24:03;902.35;;;842.75;;
19448;SDS011;9863;49.404;8.246;2022-09-14T16:26:35;894.28;;;835.50;;
19448;SDS011;9863;49.404;8.246;2022-09-14T16:29:07;904.45;;;845.15;;
19448;SDS011;9863;49.404;8.246;2022-09-14T16:31:41;903.95;;;844.35;;
19448;SDS011;9863;49.404;8.246;2022-09-14T16:34:23;910.75;;;850.22;;
19448;SDS011;9863;49.404;8.246;2022-09-14T16:36:54;911.00;;;850.90;;
19448;SDS011;9863;49.404;8.246;2022-09-14T16:39:25;911.92;;;852.25;;
19448;SDS011;9863;49.404;8.246;2022-09-14T16:41:55;923.13;;;862.45;;
19448;SDS011;9863;49.404;8.246;2022-09-14T16:44:25;964.63;;;898.20;;
19448;SDS011;9863;49.404;8.246;2022-09-14T16:46:55;946.03;;;883.92;;
19448;SDS011;9863;49.404;8.246;2022-09-14T16:49:25;936.38;;;875.15;;
19448;SDS011;9863;49.404;8.246;2022-09-14T16:51:55;937.58;;;875.67;;